Flight Track Log - Related Links

Times and Time Zones

All times are in EDT time to prevent confusion due to time zone crossing. See the RPA3496 flight status page for this flight to view local times or setup timezone preferences in your user account.

Time Position Orientation Groundspeed Altitude Reporting Facility
EDT Latitude Longitude Course Direction KTS MPH feet Rate Location/Type
Mon 12:24:52 PM 42.3500 -71.0167 200° South 142 163 800  Level KA90
Mon 12:26:11 PM 42.3147 -71.0839 235° Southwest 210 242 3,300 2,201 Climbing Boston Center
Mon 12:27:00 PM 42.3843 -70.7333 180° South  Level FlightAware Approximate
Mon 12:27:11 PM 42.2483 -71.1086 195° South 280 322 5,900  Level Boston Center
Mon 12:28:00 PM 42.2926 -70.6870 164° South  Level FlightAware Approximate
Mon 12:29:00 PM 42.2024 -70.6345 160° South  Level FlightAware Approximate
Mon 12:29:14 PM 42.1008 -70.9914 149° Southeast 304 350 11,900  Level Boston Center
Mon 12:30:00 PM 42.1097 -70.6118 200° South  Level FlightAware Approximate
Mon 12:30:17 PM 42.0253 -70.9208 145° Southeast 325 374 15,000  Level Boston Center
Mon 12:31:18 PM 41.9447 -70.8464 145° Southeast 348 400 17,000 2,231 Climbing Boston Center
Mon 12:32:18 PM 41.8636 -70.7850 151° Southeast 373 429 19,500 2,488 Climbing Boston Center
Mon 12:33:21 PM 41.7747 -70.8369 204° Southwest 361 415 22,100 2,177 Climbing Boston Center
Mon 12:34:22 PM 41.6869 -70.9467 223° Southwest 358 412 24,000 934 Climbing Boston Center
Mon 12:35:23 PM 41.6117 -71.0547 227° Southwest 393 452 24,000  Level Boston Center
Mon 12:36:23 PM 41.5386 -71.1647 228° Southwest 396 456 24,000  Level Boston Center
Mon 12:37:27 PM 41.4761 -71.2608 229° Southwest 396 456 24,000  Level Boston Center
Mon 12:38:27 PM 41.3881 -71.3933 228° Southwest 395 455 24,000  Level Boston Center
Mon 12:39:28 PM 41.3153 -71.5008 228° Southwest 395 455 24,000  Level Boston Center
Mon 12:40:29 PM 41.2428 -71.6097 228° Southwest 394 453 24,000  Level Boston Center
Mon 12:41:29 PM 41.1697 -71.7178 228° Southwest 394 453 24,000  Level Boston Center
Mon 12:42:33 PM 41.0964 -71.8269 228° Southwest 394 453 24,000  Level Boston Center
Mon 12:43:33 PM 41.0222 -71.9350 228° Southwest 394 453 24,000  Level Boston Center
Mon 12:44:34 PM 40.9494 -72.0431 228° Southwest 394 453 24,000  Level Boston Center
Mon 12:45:37 PM 40.8761 -72.1492 228° Southwest 393 452 24,000  Level Boston Center
Mon 12:46:38 PM 40.8039 -72.2544 228° Southwest 392 451 24,000  Level Boston Center
Mon 12:47:38 PM 40.7236 -72.3722 228° Southwest 391 450 24,000  Level Boston Center
Mon 12:48:39 PM 40.6531 -72.4758 228° Southwest 384 442 24,000  Level Boston Center
Mon 12:49:43 PM 40.5811 -72.5775 227° Southwest 383 441 24,000 -48 Level Boston Center
Mon 12:50:43 PM 40.5106 -72.6817 228° Southwest 382 440 23,900 -992 Descending Boston Center
Mon 12:51:44 PM 40.4378 -72.7847 227° Southwest 384 442 22,000 -1,887 Descending Boston Center
Mon 12:52:47 PM 40.3517 -72.9072 227° Southwest 381 438 20,000 -976 Descending Boston Center
Mon 12:53:47 PM 40.2831 -73.0047 227° Southwest 368 423 20,000  Level Boston Center
Mon 12:54:48 PM 40.2117 -73.1058 227° Southwest 374 430 20,000  Level Boston Center
Mon 12:55:49 PM 40.1467 -73.2008 228° Southwest 374 430 20,000  Level Boston Center
Mon 12:56:52 PM 40.0753 -73.3003 227° Southwest 373 429 20,000  Level Boston Center
Mon 12:57:52 PM 40.0050 -73.3981 227° Southwest 373 429 20,000  Level Boston Center
Mon 12:58:53 PM 39.9297 -73.5036 227° Southwest 374 430 20,000  Level Boston Center
Mon 12:59:56 PM 39.8606 -73.6069 229° Southwest 376 433 20,000  Level Boston Center
Mon 01:00:56 PM 39.7956 -73.7108 231° Southwest 374 430 20,000 -634 Level Boston Center
Mon 01:01:59 PM 39.6819 -73.7325 188° South 426 490 18,700 -1,500 Descending Boston Center
Mon 01:03:00 PM 39.5717 -73.8000 205° Southwest 376 433 16,900 -1,377 Descending Boston Center
Mon 01:04:01 PM 39.5558 -73.9100 259° West 319 367 15,900 -1,016 Descending Boston Center
Mon 01:05:04 PM 39.5386 -74.0281 259° West 309 356 14,800 -984 Descending Washington Center
Mon 01:06:03 PM 39.5233 -74.1333 259° West 309 356 13,900 -454 Descending Washington Center
Mon 01:07:03 PM 39.4617 -74.2019 221° Southwest 280 322 13,900  Level Washington Center
Mon 01:08:04 PM 39.4208 -74.2778 235° Southwest 292 336 13,900  Level Washington Center
Mon 01:09:05 PM 39.4364 -74.3717 282° West 247 284 13,900 -202 Level Washington Center
Mon 01:10:03 PM 39.4519 -74.4575 283° West 247 284 13,500 -1,079 Descending Washington Center
Mon 01:12:03 PM 39.4833 -74.6333 283° West 252 290 10,700 -1,379 Descending Philadelphia TRACON
Mon 01:12:57 PM 39.5000 -74.7167 285° West 260 299 9,500 -895 Descending Philadelphia TRACON
Mon 01:13:57 PM 39.5167 -74.8000 285° West 256 295 9,000 -750 Descending Philadelphia TRACON
Mon 01:14:57 PM 39.5667 -74.8500 322° Northwest 253 291 8,000 -600 Descending Philadelphia TRACON
Mon 01:15:57 PM 39.6333 -74.8833 339° North 254 292 7,800 -950 Descending Philadelphia TRACON
Mon 01:16:57 PM 39.7000 -74.9167 339° North 252 290 6,100 -1,550 Descending Philadelphia TRACON
Mon 01:17:57 PM 39.7667 -74.9500 339° North 252 290 4,700 -1,524 Descending Philadelphia TRACON
Mon 01:19:03 PM 39.8333 -74.9833 339° North 242 278 2,900 -1,143 Descending Philadelphia TRACON
Mon 01:20:03 PM 39.8833 -75.0167 333° Northwest 187 215 2,300 -446 Descending Philadelphia TRACON
Mon 01:21:04 PM 39.9000 -75.0833 288° West 175 201 2,000 -450 Descending Philadelphia TRACON
Mon 01:22:03 PM 39.9000 -75.1333 270° West 155 178 1,400 -700 Descending Philadelphia TRACON
Mon 01:23:04 PM 39.8833 -75.1833 247° West 135 155 600 -787 Descending Philadelphia TRACON

Login

Don't have an account? Register now (free) for customized features, flight alerts, and more!